Time;durP1;ratioP1;P1;durP2;ratioP2;P2;SDS_P1;SDS_P2;PMS_P1;PMS_P2;Temp;Humidity;BMP_temperature;BMP_pressure;BME280_temperature;BME280_humidity;BME280_pressure;Samples;Min_cycle;Max_cycle;Signal;HPM_P1;HPM_P2
2022/06/28 00:00:26;;;;;;;0.73;0.63;;;13.70;99.90;;;;;;5002386;28;89944;-38
2022/06/28 00:02:51;;;;;;;0.20;0.13;;;13.60;99.90;;;;;;5000913;28;89888;-44
2022/06/28 00:05:17;;;;;;;0.30;0.30;;;13.60;99.90;;;;;;5002760;28;87946;-38
2022/06/28 00:07:43;;;;;;;0.20;0.10;;;13.60;99.90;;;;;;5001499;28;90588;-39
2022/06/28 00:10:11;;;;;;;0.30;0.30;;;13.60;99.90;;;;;;5001959;28;90485;-40
2022/06/28 00:12:38;;;;;;;0.20;0.20;;;13.60;99.90;;;;;;5001647;28;90264;-40
2022/06/28 00:17:52;;;;;;;1.10;1.10;;;13.50;99.90;;;;;;5001029;28;88645;-42
2022/06/28 00:20:18;;;;;;;0.20;0.10;;;13.50;99.90;;;;;;5001523;28;90230;-40
2022/06/28 00:22:43;;;;;;;0.20;0.20;;;13.50;99.90;;;;;;5001115;28;89419;-42
2022/06/28 00:25:09;;;;;;;0.43;0.20;;;13.50;99.90;;;;;;5001297;28;88471;-46
2022/06/28 00:27:35;;;;;;;0.47;0.47;;;13.40;99.90;;;;;;5001175;28;87460;-40
2022/06/28 00:30:02;;;;;;;0.30;0.30;;;13.40;99.90;;;;;;5001110;28;90215;-41
2022/06/28 00:32:28;;;;;;;0.20;0.20;;;13.40;99.90;;;;;;5001726;28;89939;-44
2022/06/28 00:34:54;;;;;;;0.25;0.25;;;13.40;99.90;;;;;;5000706;28;89361;-43
2022/06/28 00:37:19;;;;;;;0.38;0.30;;;13.40;99.90;;;;;;5001062;28;89006;-42
2022/06/28 00:39:45;;;;;;;0.22;0.15;;;13.40;99.90;;;;;;5001562;28;89862;-38
2022/06/28 00:42:11;;;;;;;0.20;0.20;;;13.40;99.90;;;;;;5000900;28;89016;-41
2022/06/28 00:44:37;;;;;;;0.20;0.20;;;13.30;99.90;;;;;;5000964;28;87717;-41
2022/06/28 00:47:04;;;;;;;0.25;0.25;;;13.30;99.90;;;;;;5001904;28;88298;-44
2022/06/28 00:49:30;;;;;;;0.20;0.10;;;13.40;99.90;;;;;;5001045;28;89013;-43
2022/06/28 00:51:58;;;;;;;1.27;0.55;;;13.50;99.90;;;;;;5000259;28;89638;-41
2022/06/28 00:54:25;;;;;;;0.22;0.22;;;13.40;99.90;;;;;;5001276;28;88932;-42
2022/06/28 00:56:51;;;;;;;1.23;0.57;;;13.40;99.90;;;;;;5001219;28;88302;-43
2022/06/28 00:59:17;;;;;;;0.90;0.40;;;13.30;99.90;;;;;;5000682;28;90607;-40
2022/06/28 01:01:43;;;;;;;0.20;0.15;;;13.40;99.90;;;;;;5000552;28;89740;-46
2022/06/28 01:04:09;;;;;;;0.40;0.32;;;13.30;99.90;;;;;;5001653;28;89604;-46
2022/06/28 01:06:38;;;;;;;0.50;0.43;;;13.30;99.90;;;;;;5028377;22;87764;-34
2022/06/28 01:09:03;;;;;;;0.20;0.10;;;13.20;99.90;;;;;;4961229;28;90363;-33
2022/06/28 01:11:29;;;;;;;1.00;0.90;;;13.20;99.90;;;;;;4960838;28;89826;-36
2022/06/28 01:14:01;;;;;;;1.65;1.55;;;13.20;99.90;;;;;;4958917;28;88985;-33
2022/06/28 01:16:28;;;;;;;0.43;0.43;;;13.30;99.90;;;;;;4961414;28;88899;-34
2022/06/28 01:18:53;;;;;;;0.88;0.88;;;13.30;99.90;;;;;;4960579;28;89993;-34
2022/06/28 01:21:23;;;;;;;0.73;0.65;;;13.20;99.90;;;;;;4961456;28;89681;-34
2022/06/28 01:23:49;;;;;;;0.30;0.30;;;13.30;99.90;;;;;;4960874;28;89050;-35
2022/06/28 01:26:19;;;;;;;0.20;0.17;;;13.20;99.90;;;;;;4959240;28;90956;-34
2022/06/28 01:28:46;;;;;;;0.20;0.10;;;13.20;99.90;;;;;;4960376;28;90089;-35
2022/06/28 01:31:12;;;;;;;1.23;0.80;;;13.20;99.90;;;;;;4960591;28;89721;-35
2022/06/28 01:33:38;;;;;;;0.20;0.20;;;13.20;99.90;;;;;;4961523;28;88711;-37
2022/06/28 01:36:05;;;;;;;0.40;0.40;;;13.20;99.90;;;;;;4960641;28;88807;-36
2022/06/28 01:38:31;;;;;;;0.20;0.20;;;13.10;99.90;;;;;;4960205;28;90350;-36
2022/06/28 01:40:58;;;;;;;0.20;0.10;;;13.10;99.90;;;;;;4960892;28;89559;-35
2022/06/28 01:43:24;;;;;;;0.30;0.30;;;13.20;99.90;;;;;;4960699;28;88668;-35
2022/06/28 01:45:53;;;;;;;0.52;0.52;;;13.10;99.90;;;;;;4961046;28;89839;-37
2022/06/28 01:48:19;;;;;;;0.20;0.13;;;13.10;99.90;;;;;;4960785;28;90319;-37
2022/06/28 01:50:45;;;;;;;0.22;0.22;;;13.10;99.90;;;;;;4960224;28;91288;-34
2022/06/28 01:53:11;;;;;;;0.43;0.43;;;13.10;99.90;;;;;;4960966;28;89598;-33
2022/06/28 01:55:37;;;;;;;0.20;0.10;;;13.10;99.90;;;;;;4961416;28;88481;-37
2022/06/28 01:58:03;;;;;;;0.20;0.20;;;13.10;99.90;;;;;;4959005;28;89320;-36
2022/06/28 02:00:29;;;;;;;0.20;0.20;;;13.00;99.90;;;;;;4960401;28;89642;-33
2022/06/28 02:02:55;;;;;;;1.40;0.75;;;13.00;99.90;;;;;;4961965;28;87628;-32
2022/06/28 02:05:21;;;;;;;0.65;0.65;;;13.10;99.90;;;;;;4963757;28;88477;-35
2022/06/28 02:07:49;;;;;;;0.20;0.20;;;13.10;99.90;;;;;;4963803;28;90085;-33
2022/06/28 02:10:16;;;;;;;1.45;1.40;;;13.00;99.90;;;;;;4964313;28;89637;-36
2022/06/28 02:12:41;;;;;;;0.20;0.20;;;13.10;99.90;;;;;;4963872;28;89001;-37
2022/06/28 02:15:07;;;;;;;0.30;0.30;;;13.00;99.90;;;;;;4964421;28;88966;-35
2022/06/28 02:17:33;;;;;;;0.20;0.20;;;12.90;99.90;;;;;;4963948;28;91079;-34
2022/06/28 02:19:59;;;;;;;0.20;0.20;;;13.00;99.90;;;;;;4963132;28;89720;-34
2022/06/28 02:22:25;;;;;;;0.65;0.65;;;12.90;99.90;;;;;;4964333;28;88050;-33
2022/06/28 02:24:51;;;;;;;0.20;0.20;;;13.00;99.90;;;;;;4963067;28;88605;-33
2022/06/28 02:27:17;;;;;;;0.20;0.20;;;12.90;99.90;;;;;;4963820;28;90598;-34
2022/06/28 02:29:43;;;;;;;0.55;0.55;;;12.80;99.90;;;;;;4963501;28;89516;-34
2022/06/28 02:32:09;;;;;;;0.47;0.47;;;12.90;99.90;;;;;;4963467;28;89661;-34
2022/06/28 02:40:22;;;;;;;0.52;0.52;;;12.70;99.90;;;;;;4963209;28;90542;-36
2022/06/28 02:42:54;;;;;;;0.20;0.10;;;12.70;99.90;;;;;;4963672;28;89894;-34
2022/06/28 02:45:21;;;;;;;0.30;0.30;;;12.70;99.90;;;;;;4963950;28;88523;-37
2022/06/28 02:47:47;;;;;;;0.20;0.20;;;12.70;99.90;;;;;;4963594;28;91040;-34
2022/06/28 02:50:13;;;;;;;0.28;0.28;;;12.70;99.90;;;;;;4963257;28;90726;-35
2022/06/28 02:52:39;;;;;;;0.63;0.63;;;12.70;99.90;;;;;;4963751;28;88924;-34
2022/06/28 02:55:06;;;;;;;0.30;0.30;;;12.70;99.90;;;;;;4963436;28;88590;-36
2022/06/28 02:57:32;;;;;;;0.20;0.20;;;12.70;99.90;;;;;;4962691;28;91791;-37
2022/06/28 02:59:59;;;;;;;0.30;0.30;;;12.70;99.90;;;;;;4962954;28;90121;-33
2022/06/28 03:02:24;;;;;;;0.20;0.20;;;12.70;99.90;;;;;;4963210;28;89538;-35
2022/06/28 03:04:50;;;;;;;0.20;0.10;;;12.70;99.90;;;;;;4962876;28;87657;-34
2022/06/28 03:07:16;;;;;;;0.68;0.68;;;12.70;99.90;;;;;;4962690;28;89314;-33
2022/06/28 03:09:41;;;;;;;0.20;0.20;;;12.70;99.90;;;;;;4962145;28;90054;-35
2022/06/28 03:12:07;;;;;;;0.20;0.20;;;12.70;99.90;;;;;;4963494;28;88830;-37
2022/06/28 03:14:33;;;;;;;0.25;0.25;;;12.60;99.90;;;;;;4962121;28;88366;-36
2022/06/28 03:16:59;;;;;;;0.20;0.20;;;12.60;99.90;;;;;;4962878;28;89124;-34
2022/06/28 03:19:24;;;;;;;0.32;0.25;;;12.60;99.90;;;;;;4962246;28;89557;-35
2022/06/28 03:21:51;;;;;;;0.30;0.30;;;12.70;99.90;;;;;;4962692;28;89783;-38
2022/06/28 03:24:16;;;;;;;0.20;0.20;;;12.70;99.90;;;;;;4963094;28;88065;-36
2022/06/28 03:26:42;;;;;;;0.20;0.10;;;12.70;99.90;;;;;;4962563;28;90338;-35
2022/06/28 03:29:08;;;;;;;0.60;0.60;;;12.70;99.90;;;;;;4963343;28;89738;-34
2022/06/28 03:31:33;;;;;;;0.30;0.30;;;12.70;99.90;;;;;;4962882;28;88159;-32
2022/06/28 03:33:59;;;;;;;0.20;0.20;;;12.70;99.90;;;;;;4962546;28;90411;-33
2022/06/28 03:36:25;;;;;;;0.28;0.28;;;12.70;99.90;;;;;;4963472;28;90661;-32
2022/06/28 03:38:50;;;;;;;0.20;0.20;;;12.80;99.90;;;;;;4961542;28;90572;-34
2022/06/28 03:41:22;;;;;;;1.00;0.50;;;12.80;99.90;;;;;;4962686;28;88225;-35
2022/06/28 03:43:52;;;;;;;0.20;0.10;;;12.80;99.90;;;;;;4962409;28;88880;-35
2022/06/28 03:46:19;;;;;;;0.20;0.20;;;12.80;99.90;;;;;;4962192;28;90443;-34
2022/06/28 03:48:46;;;;;;;0.45;0.45;;;12.80;99.90;;;;;;4962654;28;89664;-37
2022/06/28 03:51:12;;;;;;;0.20;0.20;;;12.80;99.90;;;;;;4962562;28;88454;-34
2022/06/28 03:53:38;;;;;;;0.20;0.10;;;12.70;99.90;;;;;;4961956;28;89551;-37
2022/06/28 03:56:04;;;;;;;14.70;1.10;;;12.80;99.90;;;;;;4963013;28;90813;-33
2022/06/28 03:58:30;;;;;;;0.20;0.17;;;12.70;99.90;;;;;;4961700;28;89860;-35
2022/06/28 04:00:55;;;;;;;0.20;0.10;;;12.70;99.90;;;;;;4962225;28;88037;-37
2022/06/28 04:03:21;;;;;;;0.20;0.20;;;12.70;99.90;;;;;;4962414;28;88737;-33
2022/06/28 04:05:47;;;;;;;0.20;0.10;;;12.70;99.90;;;;;;4961672;28;90362;-37
2022/06/28 04:08:12;;;;;;;0.20;0.20;;;12.70;99.90;;;;;;4961527;28;89754;-35
2022/06/28 04:10:38;;;;;;;0.20;0.10;;;12.80;99.90;;;;;;4961315;28;87688;-35
2022/06/28 04:13:04;;;;;;;0.57;0.57;;;12.80;99.90;;;;;;4962537;28;87505;-33
2022/06/28 04:15:30;;;;;;;0.88;0.88;;;12.80;99.90;;;;;;4961744;28;90307;-33
2022/06/28 04:17:56;;;;;;;0.40;0.40;;;12.90;99.90;;;;;;4962060;28;89469;-32
2022/06/28 04:20:21;;;;;;;0.43;0.43;;;13.00;99.90;;;;;;4962452;28;88241;-32
2022/06/28 04:22:47;;;;;;;0.95;0.85;;;13.10;99.90;;;;;;4961386;28;88078;-33
2022/06/28 04:25:12;;;;;;;0.90;0.85;;;13.10;99.90;;;;;;4960942;28;90126;-34
2022/06/28 04:27:38;;;;;;;2.60;0.43;;;13.20;99.90;;;;;;4961082;28;90612;-35
2022/06/28 04:30:04;;;;;;;0.38;0.38;;;13.20;99.90;;;;;;4962225;28;89120;-34
2022/06/28 04:32:30;;;;;;;0.43;0.43;;;13.20;99.90;;;;;;4962307;28;88644;-36
2022/06/28 04:34:59;;;;;;;0.30;0.30;;;13.20;99.90;;;;;;4960812;28;90074;-34
2022/06/28 04:37:25;;;;;;;1.65;0.80;;;13.40;99.90;;;;;;4961101;28;89691;-34
2022/06/28 04:39:51;;;;;;;0.75;0.75;;;13.60;99.90;;;;;;4961668;28;87645;-35
2022/06/28 04:42:17;;;;;;;0.20;0.10;;;13.70;99.90;;;;;;4961430;28;89087;-35
2022/06/28 04:44:43;;;;;;;0.20;0.20;;;14.00;99.90;;;;;;4961969;28;90414;-39
2022/06/28 04:47:09;;;;;;;0.57;0.57;;;14.20;99.90;;;;;;4961370;28;90627;-35
2022/06/28 04:49:35;;;;;;;0.25;0.25;;;14.40;99.90;;;;;;4960892;28;89878;-34
2022/06/28 04:52:01;;;;;;;0.40;0.40;;;14.60;99.90;;;;;;4961549;28;87622;-37
2022/06/28 04:54:27;;;;;;;0.45;0.45;;;14.80;99.90;;;;;;4960870;28;91184;-35
2022/06/28 04:56:52;;;;;;;0.85;0.73;;;15.00;99.90;;;;;;4961009;28;89691;-37
2022/06/28 04:59:18;;;;;;;0.20;0.20;;;15.20;99.90;;;;;;4961511;28;89093;-34
2022/06/28 05:01:44;;;;;;;0.20;0.20;;;15.30;99.90;;;;;;4960952;28;89172;-37
2022/06/28 05:04:10;;;;;;;0.43;0.43;;;15.50;99.90;;;;;;4961135;28;89129;-35
2022/06/28 05:06:35;;;;;;;0.30;0.30;;;15.70;99.90;;;;;;4960713;28;89762;-36
2022/06/28 05:09:01;;;;;;;4.18;1.35;;;15.80;99.90;;;;;;4962073;28;88449;-35
2022/06/28 05:11:28;;;;;;;0.20;0.20;;;16.00;99.90;;;;;;4961184;28;88327;-35
2022/06/28 05:13:55;;;;;;;0.20;0.10;;;16.20;99.90;;;;;;4960710;28;90772;-33
2022/06/28 05:16:20;;;;;;;0.63;0.63;;;16.20;99.90;;;;;;4960903;28;90047;-37
2022/06/28 05:18:46;;;;;;;0.20;0.20;;;16.30;99.90;;;;;;4960701;28;89432;-35
2022/06/28 05:21:12;;;;;;;0.95;0.93;;;16.30;99.90;;;;;;4961077;28;87701;-35
2022/06/28 05:23:37;;;;;;;2.15;2.05;;;16.40;99.90;;;;;;4960534;28;91561;-32
2022/06/28 05:26:03;;;;;;;0.85;0.73;;;16.40;99.90;;;;;;4960767;28;89643;-33
2022/06/28 05:28:30;;;;;;;1.17;1.08;;;16.70;99.90;;;;;;4961364;28;88873;-33
2022/06/28 05:30:55;;;;;;;3.15;2.72;;;16.70;99.90;;;;;;4960904;28;87652;-34
2022/06/28 05:33:22;;;;;;;0.30;0.30;;;16.80;99.90;;;;;;4960035;28;90588;-34
2022/06/28 05:35:47;;;;;;;3.50;1.88;;;16.90;99.90;;;;;;4965091;28;89902;-33
2022/06/28 05:38:13;;;;;;;0.98;0.98;;;16.80;99.90;;;;;;4975215;28;89793;-33
2022/06/28 05:40:39;;;;;;;0.20;0.10;;;16.80;99.90;;;;;;4960982;28;88998;-34
2022/06/28 05:43:04;;;;;;;0.63;0.63;;;16.70;99.90;;;;;;4960526;28;89926;-34
2022/06/28 05:45:30;;;;;;;0.20;0.10;;;16.60;99.90;;;;;;4960347;28;89719;-36
2022/06/28 05:47:55;;;;;;;1.30;1.00;;;16.80;99.90;;;;;;4959644;28;88826;-34
2022/06/28 05:50:21;;;;;;;0.20;0.13;;;16.60;99.90;;;;;;4960449;28;90117;-37
2022/06/28 05:52:47;;;;;;;0.20;0.13;;;16.60;99.90;;;;;;4960965;28;90189;-34
2022/06/28 05:55:13;;;;;;;0.20;0.10;;;16.80;99.90;;;;;;4960132;28;89988;-37
2022/06/28 05:57:39;;;;;;;0.90;0.90;;;16.90;99.90;;;;;;4960719;28;88485;-35
2022/06/28 06:00:06;;;;;;;0.30;0.30;;;17.30;99.90;;;;;;4960500;28;89438;-36
2022/06/28 06:02:31;;;;;;;2.20;2.10;;;17.40;99.90;;;;;;4959941;28;90096;-33
2022/06/28 06:04:59;;;;;;;0.30;0.30;;;17.70;99.90;;;;;;4960082;28;89584;-34
2022/06/28 06:07:25;;;;;;;0.45;0.40;;;18.00;99.90;;;;;;4960297;28;89897;-35
2022/06/28 06:09:51;;;;;;;0.35;0.30;;;18.20;99.90;;;;;;4960135;28;87940;-33
2022/06/28 06:12:16;;;;;;;0.20;0.20;;;18.30;99.90;;;;;;4960602;28;89833;-36
2022/06/28 06:14:42;;;;;;;0.57;0.57;;;18.40;99.90;;;;;;4959432;28;90566;-36
2022/06/28 06:17:08;;;;;;;0.20;0.20;;;18.60;99.90;;;;;;4960541;28;89118;-39
2022/06/28 06:19:33;;;;;;;0.28;0.28;;;18.70;99.90;;;;;;4959837;28;89297;-35
2022/06/28 06:21:59;;;;;;;0.20;0.10;;;18.90;99.90;;;;;;4959193;28;90627;-39
2022/06/28 06:24:25;;;;;;;1.02;1.02;;;19.00;99.90;;;;;;4961785;28;89757;-33
2022/06/28 06:26:50;;;;;;;0.20;0.20;;;19.20;99.90;;;;;;4962440;28;88912;-33
2022/06/28 06:29:16;;;;;;;0.40;0.20;;;19.10;99.90;;;;;;4962015;28;88738;-33
2022/06/28 06:31:41;;;;;;;0.77;0.77;;;19.50;99.90;;;;;;4961147;28;90309;-33
2022/06/28 06:34:07;;;;;;;0.20;0.10;;;19.70;99.90;;;;;;4962200;28;89678;-34
2022/06/28 06:36:33;;;;;;;0.40;0.35;;;19.70;99.90;;;;;;4960295;28;90028;-35
2022/06/28 06:38:59;;;;;;;0.20;0.10;;;19.70;99.90;;;;;;4958914;28;87533;-34
2022/06/28 06:41:24;;;;;;;0.20;0.10;;;19.90;99.90;;;;;;4956899;28;89368;-35
2022/06/28 06:43:52;;;;;;;1.17;1.08;;;19.90;99.90;;;;;;4966833;28;90472;-34
2022/06/28 06:46:17;;;;;;;0.30;0.20;;;20.00;99.90;;;;;;4967098;28;88754;-32
2022/06/28 06:48:43;;;;;;;0.85;0.85;;;19.50;99.90;;;;;;4959182;28;89987;-33
2022/06/28 06:51:10;;;;;;;0.28;0.28;;;19.70;99.90;;;;;;4962072;28;90445;-34
2022/06/28 06:53:36;;;;;;;0.30;0.30;;;19.90;99.90;;;;;;4967891;28;89699;-34
2022/06/28 06:56:01;;;;;;;0.20;0.10;;;20.20;99.90;;;;;;4968811;28;87979;-33
2022/06/28 06:58:27;;;;;;;1.30;0.60;;;20.30;99.90;;;;;;4972467;28;89689;-38
2022/06/28 07:00:54;;;;;;;1.85;0.40;;;20.40;99.90;;;;;;4970488;28;90395;-34
2022/06/28 07:03:22;;;;;;;1.02;1.02;;;20.50;99.90;;;;;;4961494;28;89553;-33
2022/06/28 07:05:48;;;;;;;0.40;0.30;;;20.40;99.90;;;;;;4960959;28;87585;-35
2022/06/28 07:08:13;;;;;;;0.20;0.20;;;20.40;99.90;;;;;;4961247;28;89543;-33
2022/06/28 07:10:39;;;;;;;0.20;0.13;;;20.60;99.90;;;;;;4960994;28;90710;-35
2022/06/28 07:13:05;;;;;;;0.20;0.20;;;21.00;99.90;;;;;;4961202;28;88654;-36
2022/06/28 07:15:30;;;;;;;0.20;0.10;;;21.00;99.90;;;;;;4961148;28;90776;-33
2022/06/28 07:17:56;;;;;;;0.93;0.20;;;21.00;99.90;;;;;;4960732;28;90505;-38
2022/06/28 07:20:21;;;;;;;0.77;0.68;;;21.10;99.90;;;;;;4961063;28;90246;-34
2022/06/28 07:22:47;;;;;;;0.25;0.25;;;20.90;99.90;;;;;;4959296;28;89682;-35
2022/06/28 07:25:13;;;;;;;0.25;0.25;;;20.40;99.90;;;;;;4959191;28;89657;-34
2022/06/28 07:27:39;;;;;;;0.20;0.20;;;20.30;99.90;;;;;;4971830;28;88757;-37
2022/06/28 07:30:05;;;;;;;0.20;0.08;;;20.30;99.90;;;;;;4974661;28;91249;-33
2022/06/28 07:32:31;;;;;;;0.20;0.15;;;20.70;99.90;;;;;;4970034;28;90312;-35
2022/06/28 07:34:57;;;;;;;0.47;0.13;;;20.60;99.90;;;;;;4958389;28;88835;-34
2022/06/28 07:37:22;;;;;;;0.20;0.10;;;20.70;99.90;;;;;;4962112;28;89015;-35
2022/06/28 07:39:48;;;;;;;0.20;0.00;;;20.90;99.90;;;;;;4961126;28;90231;-35
2022/06/28 07:42:14;;;;;;;0.30;0.30;;;21.10;99.90;;;;;;4962050;28;89728;-34
2022/06/28 07:44:39;;;;;;;0.20;0.10;;;20.60;99.90;;;;;;4961111;28;89024;-34
2022/06/28 07:47:05;;;;;;;0.20;0.20;;;20.10;99.90;;;;;;4960680;28;87913;-35
2022/06/28 07:52:33;;;;;;;0.28;0.28;;;19.90;99.90;;;;;;4959074;28;90235;-37
2022/06/28 07:52:34;;;;;;;0.20;0.10;;;20.00;99.90;;;;;;4959084;28;90514;-35
2022/06/28 07:55:01;;;;;;;0.20;0.08;;;20.50;99.90;;;;;;4959412;28;90379;-37
2022/06/28 07:57:27;;;;;;;0.20;0.10;;;20.30;99.90;;;;;;4960005;28;88389;-34
2022/06/28 07:59:53;;;;;;;0.20;0.20;;;20.30;99.90;;;;;;4968172;28;91050;-34
2022/06/28 08:02:19;;;;;;;0.20;0.00;;;20.70;99.90;;;;;;4974299;28;89636;-36
2022/06/28 08:04:45;;;;;;;0.20;0.05;;;21.00;99.90;;;;;;4970051;28;88908;-36
2022/06/28 08:07:11;;;;;;;0.43;0.40;;;21.40;99.90;;;;;;4971775;28;89861;-39
2022/06/28 08:09:36;;;;;;;0.25;0.17;;;21.30;99.90;;;;;;4964169;28;90122;-33
2022/06/28 08:12:02;;;;;;;0.20;0.17;;;21.20;99.90;;;;;;4963710;28;89809;-37
2022/06/28 08:14:29;;;;;;;0.20;0.03;;;21.00;99.90;;;;;;4967318;28;89596;-35
2022/06/28 08:16:55;;;;;;;0.20;0.00;;;20.90;99.90;;;;;;4965072;28;89954;-36
2022/06/28 08:19:20;;;;;;;0.43;0.43;;;21.30;99.90;;;;;;4963401;28;90056;-36
2022/06/28 08:21:47;;;;;;;0.20;0.10;;;20.90;99.90;;;;;;4966787;28;89675;-34
2022/06/28 08:24:13;;;;;;;0.20;0.10;;;21.00;99.90;;;;;;4963682;28;88019;-37
2022/06/28 08:26:42;;;;;;;0.30;0.30;;;21.10;99.90;;;;;;4967788;28;88295;-34
2022/06/28 08:29:18;;;;;;;0.30;0.30;;;21.50;99.90;;;;;;4963768;28;90353;-38
2022/06/28 08:31:44;;;;;;;0.20;0.00;;;20.90;99.90;;;;;;4967296;28;89927;-34
2022/06/28 08:34:10;;;;;;;0.28;0.25;;;20.70;99.90;;;;;;4961328;28;89024;-36
2022/06/28 08:36:36;;;;;;;0.20;0.10;;;21.10;99.90;;;;;;4959155;28;87661;-34
2022/06/28 08:39:03;;;;;;;0.20;0.20;;;21.30;99.90;;;;;;4959205;28;90188;-35
2022/06/28 08:41:32;;;;;;;0.67;0.67;;;21.70;99.90;;;;;;4958569;28;89927;-36
2022/06/28 08:43:58;;;;;;;0.30;0.10;;;21.70;99.90;;;;;;4958226;28;88894;-37
2022/06/28 08:46:24;;;;;;;0.70;0.70;;;21.60;99.90;;;;;;4959100;28;87940;-39
2022/06/28 08:49:01;;;;;;;0.20;0.10;;;21.90;99.90;;;;;;4957639;28;90836;-35
2022/06/28 08:51:30;;;;;;;0.20;0.15;;;22.10;99.90;;;;;;4958793;28;88176;-35
2022/06/28 08:54:00;;;;;;;0.45;0.45;;;22.20;99.90;;;;;;4958995;28;89363;-34
2022/06/28 08:56:26;;;;;;;0.20;0.10;;;22.30;99.90;;;;;;4959414;28;90396;-35
2022/06/28 08:58:52;;;;;;;0.20;0.10;;;22.00;99.90;;;;;;4959031;28;90353;-34
2022/06/28 09:01:17;;;;;;;0.20;0.10;;;22.00;99.90;;;;;;4959330;28;90309;-35
2022/06/28 09:03:49;;;;;;;0.20;0.10;;;22.10;99.90;;;;;;4958281;28;87570;-36
2022/06/28 09:06:14;;;;;;;0.20;0.00;;;22.40;99.90;;;;;;4959118;28;88116;-36
2022/06/28 09:08:40;;;;;;;0.68;0.68;;;22.40;99.90;;;;;;4958420;28;90315;-34
2022/06/28 09:11:06;;;;;;;1.35;0.80;;;22.90;99.90;;;;;;4958431;28;89585;-35
2022/06/28 09:13:34;;;;;;;5.18;0.57;;;23.10;99.90;;;;;;4958813;28;87781;-35
2022/06/28 09:16:02;;;;;;;0.20;0.10;;;22.30;99.90;;;;;;4958895;28;88925;-33
2022/06/28 09:18:48;;;;;;;0.20;0.10;;;22.30;99.90;;;;;;4959597;28;90096;-37
2022/06/28 09:21:18;;;;;;;0.52;0.52;;;22.00;99.90;;;;;;4958349;28;89694;-35
2022/06/28 09:23:49;;;;;;;0.20;0.20;;;21.70;99.90;;;;;;4958057;28;88795;-33
2022/06/28 09:26:18;;;;;;;0.40;0.15;;;21.40;99.90;;;;;;4958327;28;87595;-36
2022/06/28 09:28:49;;;;;;;0.82;0.82;;;21.30;99.90;;;;;;4958026;28;89534;-34
2022/06/28 09:31:19;;;;;;;0.20;0.05;;;21.60;99.90;;;;;;4958605;28;89475;-34
2022/06/28 09:34:03;;;;;;;0.20;0.20;;;21.90;99.90;;;;;;4956790;28;88046;-35
2022/06/28 09:36:39;;;;;;;5.43;2.03;;;21.70;99.90;;;;;;4959537;28;89850;-35
2022/06/28 09:39:14;;;;;;;0.20;0.10;;;21.80;99.90;;;;;;4958634;28;90253;-34
2022/06/28 09:41:44;;;;;;;0.20;0.00;;;22.20;99.90;;;;;;4968395;28;89639;-33
2022/06/28 09:44:09;;;;;;;0.20;0.17;;;22.20;99.90;;;;;;4972658;28;89133;-35
2022/06/28 09:46:35;;;;;;;0.20;0.10;;;22.20;99.90;;;;;;4963148;28;88486;-36
2022/06/28 09:49:05;;;;;;;0.20;0.00;;;22.30;99.90;;;;;;4964954;28;90181;-36
2022/06/28 09:51:33;;;;;;;0.20;0.03;;;22.40;99.90;;;;;;4958158;28;89294;-35
2022/06/28 09:54:05;;;;;;;0.40;0.40;;;22.70;99.90;;;;;;4958513;28;89510;-35
2022/06/28 09:56:36;;;;;;;0.20;0.17;;;23.00;99.90;;;;;;4958322;28;89298;-33
2022/06/28 09:59:03;;;;;;;1.85;1.75;;;22.60;99.90;;;;;;4958161;28;90663;-36
2022/06/28 10:01:29;;;;;;;0.20;0.10;;;22.50;99.90;;;;;;4958199;28;89906;-35
2022/06/28 10:03:56;;;;;;;1.80;1.65;;;22.60;99.90;;;;;;4957874;28;89081;-34
2022/06/28 10:06:22;;;;;;;1.98;1.85;;;22.70;99.90;;;;;;4957572;28;87841;-35
2022/06/28 10:08:48;;;;;;;0.30;0.30;;;22.80;98.20;;;;;;4957967;28;90265;-37
2022/06/28 10:11:15;;;;;;;0.20;0.10;;;23.00;99.90;;;;;;4957727;28;90382;-37
2022/06/28 10:16:35;;;;;;;;;;;22.90;99.90;;;;;;4958669;28;88111;-34
2022/06/28 10:19:03;;;;;;;0.20;0.00;;;22.40;99.90;;;;;;4960150;28;90310;-37
2022/06/28 10:22:10;;;;;;;0.20;0.15;;;22.30;99.00;;;;;;4957900;28;89712;-35
2022/06/28 10:24:56;;;;;;;;;;;22.20;99.90;;;;;;4960676;28;89257;-35
2022/06/28 10:27:23;;;;;;;0.68;0.68;;;22.20;99.90;;;;;;4962928;28;88116;-36
2022/06/28 10:29:58;;;;;;;0.20;0.00;;;22.30;99.90;;;;;;4961684;28;90186;-34
2022/06/28 10:32:46;;;;;;;0.20;0.10;;;22.20;99.90;;;;;;4961062;28;90057;-34
2022/06/28 10:35:31;;;;;;;0.20;0.00;;;22.30;99.90;;;;;;4960694;28;87668;-34
2022/06/28 10:38:09;;;;;;;0.20;0.10;;;22.30;99.90;;;;;;4950217;28;88037;-37
2022/06/28 10:40:47;;;;;;;0.60;0.20;;;22.40;99.90;;;;;;4960537;28;90458;-37
2022/06/28 10:43:13;;;;;;;0.20;0.15;;;22.60;99.90;;;;;;4961198;28;89540;-37
2022/06/28 10:46:02;;;;;;;0.65;0.65;;;22.40;99.90;;;;;;4960707;28;89710;-33
2022/06/28 10:48:28;;;;;;;0.20;0.00;;;22.70;99.90;;;;;;4961067;28;88801;-35
2022/06/28 10:51:02;;;;;;;0.20;0.00;;;22.60;99.90;;;;;;4960441;28;90430;-35
2022/06/28 10:53:47;;;;;;;0.47;0.47;;;22.60;99.90;;;;;;4960662;28;91106;-33
2022/06/28 10:56:13;;;;;;;0.35;0.35;;;22.50;88.90;;;;;;4961417;28;88407;-36
2022/06/28 10:58:55;;;;;;;0.65;0.65;;;22.30;99.90;;;;;;4960947;28;87998;-35
2022/06/28 11:01:43;;;;;;;0.20;0.00;;;22.30;96.20;;;;;;4960603;28;90162;-35
2022/06/28 11:04:18;;;;;;;0.20;0.10;;;22.50;93.20;;;;;;4950394;28;89538;-35
2022/06/28 11:06:48;;;;;;;0.20;0.20;;;22.60;93.90;;;;;;4960032;28;88020;-36
2022/06/28 11:09:34;;;;;;;1.25;0.77;;;22.80;91.00;;;;;;4961725;28;90172;-35
2022/06/28 11:12:31;;;;;;;0.20;0.00;;;22.90;86.70;;;;;;4960755;28;90312;-35
2022/06/28 11:15:02;;;;;;;0.20;0.10;;;22.80;90.40;;;;;;4951387;28;91234;-37
2022/06/28 11:17:44;;;;;;;0.20;0.00;;;23.00;93.70;;;;;;4960521;28;87641;-35
2022/06/28 11:20:19;;;;;;;0.20;0.20;;;22.70;78.70;;;;;;4960693;28;88199;-38
2022/06/28 11:22:47;;;;;;;0.20;0.10;;;22.30;94.20;;;;;;4960009;28;90045;-36
2022/06/28 11:25:14;;;;;;;;;;;22.00;99.90;;;;;;4960640;28;89532;-35
2022/06/28 11:27:51;;;;;;;0.50;0.50;;;21.70;99.90;;;;;;4961859;28;87822;-36
2022/06/28 11:30:17;;;;;;;0.63;0.43;;;22.00;99.90;;;;;;4959873;28;89204;-33
2022/06/28 11:32:46;;;;;;;0.20;0.00;;;22.20;98.70;;;;;;4963770;28;90263;-35
2022/06/28 11:35:23;;;;;;;0.20;0.05;;;22.30;97.40;;;;;;4960081;28;89591;-36
2022/06/28 11:38:03;;;;;;;0.20;0.10;;;22.40;96.60;;;;;;4958544;28;87993;-37
2022/06/28 11:40:41;;;;;;;0.20;0.10;;;22.30;99.90;;;;;;4960796;28;89242;-35
2022/06/28 11:43:15;;;;;;;1.00;1.00;;;22.20;99.90;;;;;;4960141;28;89821;-34
2022/06/28 11:45:43;;;;;;;0.20;0.00;;;22.40;99.90;;;;;;4959165;28;89545;-37
2022/06/28 11:48:12;;;;;;;0.35;0.35;;;22.50;99.90;;;;;;4968485;28;89304;-36
2022/06/28 11:50:43;;;;;;;0.22;0.20;;;22.30;99.90;;;;;;4969261;28;87895;-34
2022/06/28 11:53:10;;;;;;;0.55;0.55;;;21.70;98.50;;;;;;4963237;28;90393;-38
2022/06/28 11:55:37;;;;;;;0.70;0.70;;;21.60;99.90;;;;;;4958056;28;90117;-37
2022/06/28 11:58:11;;;;;;;0.20;0.10;;;21.90;99.90;;;;;;4958399;28;89078;-40
2022/06/28 12:00:37;;;;;;;0.30;0.30;;;22.30;99.90;;;;;;4958093;28;89830;-38
2022/06/28 12:03:05;;;;;;;0.20;0.10;;;22.40;99.90;;;;;;4958771;28;90900;-36
2022/06/28 12:05:35;;;;;;;0.20;0.10;;;22.40;97.80;;;;;;4963117;28;89965;-34
2022/06/28 12:08:02;;;;;;;0.20;0.20;;;22.20;95.20;;;;;;4963719;28;89306;-36
2022/06/28 12:10:31;;;;;;;0.20;0.10;;;22.20;97.70;;;;;;4966502;28;89065;-38
2022/06/28 12:12:59;;;;;;;0.20;0.00;;;22.40;99.90;;;;;;4961985;28;90429;-36
2022/06/28 12:15:31;;;;;;;0.38;0.35;;;22.60;94.40;;;;;;4965593;28;89568;-38
2022/06/28 12:18:02;;;;;;;0.40;0.20;;;22.80;94.70;;;;;;4962938;28;88134;-35
2022/06/28 12:20:27;;;;;;;0.20;0.08;;;22.50;88.10;;;;;;4964155;28;90074;-34
2022/06/28 12:22:58;;;;;;;0.20;0.10;;;22.30;94.10;;;;;;4965074;28;90720;-36
2022/06/28 12:25:24;;;;;;;0.50;0.30;;;22.40;93.40;;;;;;4963145;28;89861;-35
2022/06/28 12:27:50;;;;;;;0.20;0.10;;;22.70;95.30;;;;;;4966441;28;90162;-36
2022/06/28 12:30:15;;;;;;;0.20;0.20;;;22.80;91.10;;;;;;4963650;28;88712;-38
2022/06/28 12:32:42;;;;;;;0.20;0.00;;;23.00;92.40;;;;;;4965793;28;89123;-34
2022/06/28 12:35:09;;;;;;;1.88;1.27;;;23.00;73.10;;;;;;4959164;28;89589;-35
2022/06/28 12:37:35;;;;;;;0.20;0.10;;;22.80;77.60;;;;;;4958687;28;88510;-37
2022/06/28 12:40:04;;;;;;;4.13;1.48;;;22.70;81.40;;;;;;4957779;28;89835;-34
2022/06/28 12:42:30;;;;;;;0.20;0.20;;;22.20;90.30;;;;;;4955399;28;90251;-32
2022/06/28 12:44:59;;;;;;;0.20;0.10;;;22.10;95.70;;;;;;4957951;28;89527;-37
2022/06/28 12:47:25;;;;;;;1.20;1.10;;;22.30;96.30;;;;;;4954880;28;88024;-36
2022/06/28 12:49:50;;;;;;;0.30;0.30;;;22.50;83.20;;;;;;4958178;28;87741;-38
2022/06/28 12:52:16;;;;;;;0.20;0.00;;;22.60;79.60;;;;;;4957912;28;90167;-34
2022/06/28 12:54:42;;;;;;;0.20;0.00;;;22.60;87.20;;;;;;4940461;28;89724;-34
2022/06/28 12:57:07;;;;;;;0.20;0.00;;;22.30;86.60;;;;;;4956358;28;89860;-34
2022/06/28 12:59:33;;;;;;;0.40;0.40;;;22.50;93.00;;;;;;4963078;28;89292;-38
2022/06/28 13:01:58;;;;;;;0.63;0.63;;;22.60;90.70;;;;;;4975576;28;90264;-35